• Join FlightAware (Why Join?)
  • Login
  • US Flag 
03:29PM EDT


 

Airport Tracker/Info


-or-


 

Live Flight TrackerFlight Track Log ✈ SKW2696 ✈ 10-Apr-2013 ✈ KLAX - KRNO

Flight Track Log - Related Links

Times and Time Zones

All times are in EDT time to prevent confusion due to time zone crossing. See the SKW2696 flight status page for this flight to view local times or setup timezone preferences in your user account.

Time Position Orientation Groundspeed Altitude Reporting Facility
EDT Latitude Longitude Course Direction KTS MPH feet Rate Location/Type
06:23PM 33.9333 -118.4333 265° West 158 182 1,600  Level Southern California TRACON
06:23PM 33.9306 -118.4714 265° West 196 226 2,600 2,280 Climbing Los Angeles Center
06:24PM 33.9236 -118.5564 264° West 255 293 5,200 2,580 Climbing Los Angeles Center
06:25PM 33.9353 -118.6469 279° West 287 330 8,000 1,800 Climbing Los Angeles Center
06:27PM 34.0033 -118.7017 326° Northwest 272 313 9,000 480 Climbing Los Angeles Center
06:28PM 34.0675 -118.6914 North 256 295 9,100 240 Climbing Los Angeles Center
06:29PM 34.1306 -118.6575 24° Northeast 248 285 9,600 1,380 Climbing Los Angeles Center
06:30PM 34.2042 -118.6669 354° North 260 299 12,000 2,220 Climbing Los Angeles Center
06:31PM 34.2814 -118.6808 352° North 276 318 14,300 1,500 Climbing Los Angeles Center
06:32PM 34.3644 -118.6961 351° North 293 337 15,200 1,260 Climbing Los Angeles Center
06:33PM 34.4517 -118.7106 352° North 315 362 17,000 1,740 Climbing Los Angeles Center
06:34PM 34.5572 -118.7358 349° North 323 372 18,900 1,500 Climbing Los Angeles Center
06:35PM 34.6411 -118.7822 336° Northwest 333 383 20,200 1,200 Climbing Los Angeles Center
06:36PM 34.7275 -118.8244 338° Northwest 334 384 21,500 1,200 Climbing Los Angeles Center
06:37PM 34.8169 -118.8683 338° Northwest 344 396 22,700 1,080 Climbing Los Angeles Center
06:39PM 34.9944 -118.9008 351° North 361 415 24,700 1,020 Climbing Oakland Center
06:40PM 35.1142 -118.9194 353° North 362 417 25,800 1,020 Climbing Oakland Center
06:41PM 35.2169 -118.9356 353° North 368 423 26,800 840 Climbing Oakland Center
06:42PM 35.3208 -118.9519 353° North 374 430 27,600 660 Climbing Oakland Center
06:42PM 35.3406 -118.9556 352° North 373 429 27,700 540 Climbing Los Angeles Center
06:43PM 35.4478 -118.9736 352° North 384 442 28,300 600 Climbing Los Angeles Center
06:44PM 35.5567 -118.9906 353° North 392 451 29,000 600 Climbing Los Angeles Center
06:45PM 35.6428 -119.0033 353° North 394 453 29,400 540 Climbing Oakland Center
06:46PM 35.7522 -119.0214 352° North 397 457 30,000 540 Climbing Oakland Center
06:47PM 35.8644 -119.0394 353° North 405 466 30,500 540 Climbing Oakland Center
06:48PM 35.9750 -119.0578 352° North 404 465 31,200 720 Climbing Oakland Center
06:49PM 36.1086 -119.0794 353° North 402 463 32,000 360 Climbing Oakland Center
06:50PM 36.2214 -119.0975 353° North 408 470 32,000  Level Oakland Center
06:51PM 36.3356 -119.1158 353° North 416 479 32,000  Level Oakland Center
06:52PM 36.4525 -119.1347 353° North 424 488 32,000  Level Oakland Center
06:53PM 36.5686 -119.1528 353° North 420 483 32,000  Level Oakland Center
06:54PM 36.6850 -119.1719 352° North 420 483 32,000 -180 Level Oakland Center
06:55PM 36.8008 -119.1906 353° North 421 484 31,700 -660 Descending Oakland Center
06:56PM 36.9172 -119.2106 352° North 425 489 30,700 -840 Descending Oakland Center
06:57PM 37.0333 -119.2294 353° North 421 484 30,000 -360 Descending Oakland Center
06:58PM 37.1672 -119.2506 353° North 404 465 30,000  Level Oakland Center
06:59PM 37.2753 -119.2692 352° North 394 453 30,000  Level Oakland Center
07:00PM 37.3817 -119.2917 350° North 388 447 30,000  Level Oakland Center
07:01PM 37.4850 -119.3261 345° North 384 442 30,000 -300 Level Oakland Center
07:02PM 37.5867 -119.3586 346° North 379 436 29,500 -540 Descending Oakland Center
07:03PM 37.6878 -119.3917 345° North 384 442 29,000 -540 Descending Oakland Center
07:04PM 37.7950 -119.4269 345° North 394 453 28,500 -540 Descending Oakland Center
07:05PM 37.9244 -119.4681 346° North 399 459 27,900 -600 Descending Oakland Center
07:06PM 38.0353 -119.5036 346° North 407 468 27,400 -660 Descending Oakland Center
07:07PM 38.1436 -119.5408 345° North 406 467 26,600 -1,380 Descending Oakland Center
07:08PM 38.2547 -119.5758 346° North 419 482 24,700 -1,920 Descending Oakland Center
07:09PM 38.3733 -119.6025 350° North 432 497 22,700 -1,920 Descending Oakland Center
07:10PM 38.4747 -119.6244 350° North 398 458 20,800 -1,980 Descending Oakland Center
07:11PM 38.5775 -119.6478 350° North 377 434 18,700 -2,220 Descending Oakland Center
07:12PM 38.6831 -119.6722 350° North 381 438 16,300 -2,340 Descending Oakland Center
07:13PM 38.8089 -119.7011 350° North 381 438 14,000 -1,140 Descending Oakland Center
07:14PM 38.9097 -119.7247 350° North 370 426 14,000 -60 Level Oakland Center
07:15PM 39.0111 -119.7464 351° North 367 422 13,900 -1,080 Descending Oakland Center
07:16PM 39.1117 -119.7689 350° North 366 421 11,800 -1,860 Descending Oakland Center
07:17PM 39.2044 -119.7700 359° North 350 403 10,100 -1,440 Descending Oakland Center
07:19PM 39.2850 -119.7650 North 313 360 8,900 -840 Descending Oakland Center
07:20PM 39.3556 -119.7661 359° North 303 349 8,500 -1,500 Descending Oakland Center
07:21PM 39.4333 -119.7667 360° North 193 222 5,600 -1,740 Descending Northern Cal TRACON
07:22PM 39.4667 -119.7667 360° North 148 170 4,800 -840 Descending Northern Cal TRACON
07:24PM 39.4833 -119.7667 North  Level FlightAware Approximate
07:31PM 39.4991 -119.7681 North  Level Estimated